KPWG

Mc Gregor Executive Airport

Waco, Texas, USA
METAR KPWG 280056Z AUTO 14004KT 10SM CLR 33/22 A2978 RMK AO2 SLP086 T03280217
Observed Flight Rules
May-28 @ 00:56 UTC (17 minutes ago) Visual Flight Rules
Wind Visibility Clouds
140° at 4 knots 10 miles
  • Clear skies
Temperatures Readings
Current 33°C / 91°F
Dewpoint 22°C / 72°F
Humidity 52%
Altimeter 29.78" Hg
Pressure 1008.6 hPa
Elevation 180
METAR KPWG 280056Z AUTO 14004KT 10SM CLR 33/22 A2978 RMK AO2 SLP086 T03280217
Observed Flight Rules
May-28 @ 00:56 UTC
(17 minutes ago)
VFR
Wind Visibility
140° at 4 knots 10 miles
Clouds
  • Clear skies
Temperature Dewpoint
33°C / 91°F 22°C / 72°F
Humidity Altimeter Pressure
52% 29.78" Hg 1008.6 hPa